createdAt,value
2022-12-20T00:01:35.893Z,4.16
2022-12-20T00:04:06.151Z,4.15
2022-12-20T00:06:35.490Z,4.15
2022-12-20T00:09:06.735Z,4.20
2022-12-20T00:11:34.901Z,4.20
2022-12-20T00:14:03.092Z,4.22
2022-12-20T00:16:31.292Z,4.25
2022-12-20T00:19:03.475Z,4.25
2022-12-20T00:21:32.000Z,4.26
2022-12-20T00:24:00.323Z,4.26
2022-12-20T00:26:30.145Z,4.32
2022-12-20T00:28:58.555Z,4.33
2022-12-20T00:31:28.756Z,4.39
2022-12-20T00:33:57.855Z,4.35
2022-12-20T00:36:28.890Z,4.38
2022-12-20T00:38:58.525Z,4.42
2022-12-20T00:41:27.895Z,4.40
2022-12-20T00:43:56.290Z,4.42
2022-12-20T00:46:24.836Z,4.45
2022-12-20T00:48:53.302Z,4.45
2022-12-20T00:51:24.009Z,4.43
2022-12-20T00:53:53.771Z,4.40
2022-12-20T00:56:22.190Z,4.39
2022-12-20T00:58:50.669Z,4.39
2022-12-20T01:01:21.475Z,4.38
2022-12-20T01:03:51.502Z,4.39
2022-12-20T01:06:20.958Z,4.42
2022-12-20T01:08:49.358Z,4.42
2022-12-20T01:11:20.464Z,4.38
2022-12-20T01:13:50.356Z,4.38
2022-12-20T01:16:20.082Z,4.42
2022-12-20T01:18:48.450Z,4.42
2022-12-20T01:21:18.136Z,4.42
2022-12-20T01:23:46.290Z,4.43
2022-12-20T01:26:16.478Z,4.42
2022-12-20T01:28:48.462Z,4.42
2022-12-20T01:31:18.454Z,4.38
2022-12-20T01:33:47.511Z,4.36
2022-12-20T01:36:18.313Z,4.30
2022-12-20T01:38:46.882Z,4.25
2022-12-20T01:41:16.584Z,4.22
2022-12-20T01:43:52.065Z,4.20
2022-12-20T01:46:22.099Z,4.16
2022-12-20T01:48:53.634Z,4.16
2022-12-20T01:51:22.249Z,4.15
2022-12-20T01:53:54.745Z,4.10
2022-12-20T01:56:22.848Z,4.12
2022-12-20T01:58:53.513Z,4.09
2022-12-20T02:01:22.757Z,4.10
2022-12-20T02:03:52.408Z,4.09
2022-12-20T02:06:23.508Z,4.15
2022-12-20T02:08:52.580Z,4.19
2022-12-20T02:11:33.327Z,4.18
2022-12-20T02:14:10.514Z,4.23
2022-12-20T02:16:45.648Z,4.30
2022-12-20T02:19:27.456Z,4.32
2022-12-20T02:21:57.603Z,4.33
2022-12-20T02:24:49.537Z,4.36
2022-12-20T02:27:45.129Z,4.38
2022-12-20T02:30:16.783Z,4.43
2022-12-20T02:32:50.260Z,4.46
2022-12-20T02:35:22.785Z,4.46
2022-12-20T02:37:51.120Z,4.46
2022-12-20T02:40:22.488Z,4.50
2022-12-20T02:42:53.912Z,4.53
2022-12-20T02:45:24.841Z,4.56
2022-12-20T02:47:55.463Z,4.57
2022-12-20T02:50:25.213Z,4.57
2022-12-20T02:52:53.477Z,4.60
2022-12-20T02:55:24.016Z,4.60
2022-12-20T02:58:00.285Z,4.64
2022-12-20T03:00:33.413Z,4.66
2022-12-20T03:03:19.712Z,4.68
2022-12-20T03:05:48.849Z,4.73
2022-12-20T03:08:17.472Z,4.74
2022-12-20T03:10:45.520Z,4.78
2022-12-20T03:13:13.798Z,4.77
2022-12-20T03:15:43.356Z,4.80
2022-12-20T03:18:11.626Z,4.81
2022-12-20T03:20:40.127Z,4.83
2022-12-20T03:23:08.324Z,4.83
2022-12-20T03:25:36.589Z,4.85
2022-12-20T03:28:04.988Z,4.83
2022-12-20T03:30:33.460Z,4.85
2022-12-20T03:33:02.741Z,4.83
2022-12-20T03:35:30.822Z,4.87
2022-12-20T03:37:58.796Z,4.89
2022-12-20T03:40:26.805Z,4.94
2022-12-20T03:42:54.810Z,4.91
2022-12-20T03:45:22.938Z,4.89
2022-12-20T03:47:50.964Z,4.87
2022-12-20T03:50:20.270Z,4.81
2022-12-20T03:52:48.273Z,4.84
2022-12-20T03:55:16.468Z,4.81
2022-12-20T03:57:44.417Z,4.83
2022-12-20T04:00:13.632Z,4.83
2022-12-20T04:02:41.822Z,4.85
2022-12-20T04:05:10.277Z,4.92
2022-12-20T04:07:39.740Z,4.88
2022-12-20T04:10:08.970Z,4.85
2022-12-20T04:12:37.008Z,4.87
2022-12-20T04:15:05.794Z,4.87
2022-12-20T04:17:33.913Z,4.84
2022-12-20T04:20:18.753Z,4.83
2022-12-20T04:22:48.652Z,4.84
2022-12-20T04:25:18.583Z,4.87
2022-12-20T04:27:46.688Z,4.80
2022-12-20T04:30:15.327Z,4.77
2022-12-20T04:32:43.349Z,4.74
2022-12-20T04:35:11.929Z,4.73
2022-12-20T04:37:39.970Z,4.70
2022-12-20T04:40:10.972Z,4.67
2022-12-20T04:42:38.988Z,4.66
2022-12-20T04:45:08.247Z,4.67
2022-12-20T04:47:36.286Z,4.64
2022-12-20T04:50:04.821Z,4.61
2022-12-20T04:52:50.673Z,4.64
2022-12-20T04:55:20.956Z,4.68
2022-12-20T04:57:49.313Z,4.67
2022-12-20T05:00:17.942Z,4.71
2022-12-20T05:02:46.402Z,4.74
2022-12-20T05:05:15.045Z,4.71
2022-12-20T05:07:43.009Z,4.76
2022-12-20T05:10:11.791Z,4.77
2022-12-20T05:12:41.251Z,4.78
2022-12-20T05:15:10.649Z,4.77
2022-12-20T05:17:38.833Z,4.78
2022-12-20T05:20:08.557Z,4.80
2022-12-20T05:22:54.369Z,4.83
2022-12-20T05:25:40.359Z,4.83
2022-12-20T05:28:09.692Z,4.85
2022-12-20T05:30:37.730Z,4.92
2022-12-20T05:33:06.024Z,4.95
2022-12-20T05:35:34.223Z,4.99
2022-12-20T05:38:02.507Z,4.99
2022-12-20T05:40:30.516Z,5.03
2022-12-20T05:42:58.510Z,5.08
2022-12-20T05:45:28.428Z,5.14
2022-12-20T05:47:56.460Z,5.19
2022-12-20T05:50:24.422Z,5.22
2022-12-20T05:52:52.569Z,5.26
2022-12-20T05:55:20.698Z,5.26
2022-12-20T05:57:49.030Z,5.28
2022-12-20T06:00:17.680Z,5.28
2022-12-20T06:02:47.119Z,5.31
2022-12-20T06:05:15.422Z,5.31
2022-12-20T06:07:44.050Z,5.28
2022-12-20T06:10:12.605Z,5.29
2022-12-20T06:12:40.670Z,5.26
2022-12-20T06:15:10.849Z,5.29
2022-12-20T06:17:38.920Z,5.32
2022-12-20T06:20:09.715Z,5.29
2022-12-20T06:22:38.684Z,5.26
2022-12-20T06:25:09.186Z,5.32
2022-12-20T06:27:37.299Z,5.34
2022-12-20T06:30:06.005Z,5.35
2022-12-20T06:32:34.224Z,5.36
2022-12-20T06:35:02.309Z,5.38
2022-12-20T06:37:32.165Z,5.40
2022-12-20T06:40:00.567Z,5.39
2022-12-20T06:42:28.637Z,5.42
2022-12-20T06:44:56.612Z,5.45
2022-12-20T06:47:24.697Z,5.50
2022-12-20T06:49:52.648Z,6.10
2022-12-20T06:52:21.154Z,6.53
2022-12-20T06:54:50.609Z,6.89
2022-12-20T06:57:19.410Z,6.96
2022-12-20T06:59:47.519Z,7.18
2022-12-20T07:02:15.831Z,7.17
2022-12-20T07:04:44.016Z,7.27
2022-12-20T07:07:13.460Z,7.21
2022-12-20T07:09:42.755Z,7.20
2022-12-20T07:12:12.258Z,7.14
2022-12-20T07:14:40.317Z,7.05
2022-12-20T07:17:08.426Z,6.96
2022-12-20T07:19:37.278Z,6.83
2022-12-20T07:22:06.438Z,6.63
2022-12-20T07:24:34.846Z,6.38
2022-12-20T07:27:03.488Z,6.20
2022-12-20T07:29:32.907Z,6.04
2022-12-20T07:32:01.215Z,5.91
2022-12-20T07:34:29.506Z,5.84
2022-12-20T07:36:57.685Z,5.73
2022-12-20T07:39:25.983Z,5.70
2022-12-20T07:41:54.770Z,5.66
2022-12-20T07:44:26.199Z,5.65
2022-12-20T07:46:55.566Z,5.60
2022-12-20T07:49:23.801Z,5.57
2022-12-20T07:51:54.717Z,5.56
2022-12-20T07:54:24.983Z,5.56
2022-12-20T07:56:54.579Z,5.55
2022-12-20T07:59:25.879Z,5.56
2022-12-20T08:01:59.444Z,5.53
2022-12-20T08:04:32.535Z,5.52
2022-12-20T08:07:01.442Z,5.52
2022-12-20T08:09:31.037Z,5.50
2022-12-20T08:11:59.357Z,5.49
2022-12-20T08:14:27.523Z,5.52
2022-12-20T08:16:56.955Z,5.50
2022-12-20T08:19:31.830Z,5.52
2022-12-20T08:22:00.427Z,5.56
2022-12-20T08:24:28.697Z,5.59
2022-12-20T08:26:57.927Z,5.60
2022-12-20T08:29:25.933Z,5.62
2022-12-20T08:31:54.041Z,5.65
2022-12-20T08:34:23.473Z,5.67
2022-12-20T08:36:51.766Z,5.69
2022-12-20T08:39:19.909Z,5.73
2022-12-20T08:41:47.936Z,5.76
2022-12-20T08:44:16.001Z,5.73
2022-12-20T08:46:44.010Z,5.80
2022-12-20T08:49:12.146Z,5.82
2022-12-20T08:51:41.745Z,5.90
2022-12-20T08:54:09.858Z,5.94
2022-12-20T08:56:37.915Z,5.95
2022-12-20T08:59:06.563Z,6.05
2022-12-20T09:01:36.974Z,6.07
2022-12-20T09:04:05.871Z,6.13
2022-12-20T09:06:36.129Z,6.20
2022-12-20T09:09:07.030Z,6.24
2022-12-20T09:11:35.734Z,6.29
2022-12-20T09:14:03.996Z,6.38
2022-12-20T09:16:33.894Z,6.42
2022-12-20T09:19:05.923Z,6.48
2022-12-20T09:21:35.060Z,6.55
2022-12-20T09:24:06.221Z,6.63
2022-12-20T09:26:36.181Z,6.73
2022-12-20T09:29:05.302Z,6.82
2022-12-20T09:31:33.430Z,6.89
2022-12-20T09:34:01.909Z,6.93
2022-12-20T09:36:31.142Z,6.96
2022-12-20T09:38:59.392Z,7.01
2022-12-20T09:41:30.907Z,7.08
2022-12-20T09:44:06.134Z,7.13
2022-12-20T09:46:35.211Z,7.13
2022-12-20T09:49:04.220Z,7.17
2022-12-20T09:51:44.583Z,7.20
2022-12-20T09:54:19.773Z,7.23
2022-12-20T09:56:56.151Z,7.24
2022-12-20T09:59:25.689Z,7.27
2022-12-20T10:01:54.403Z,7.28
2022-12-20T10:04:24.561Z,7.27
2022-12-20T10:07:02.055Z,7.28
2022-12-20T10:09:48.855Z,7.30
2022-12-20T10:12:25.773Z,7.28
2022-12-20T10:15:05.560Z,7.30
2022-12-20T10:17:41.810Z,7.32
2022-12-20T10:20:21.089Z,7.34
2022-12-20T10:22:53.379Z,7.38
2022-12-20T10:25:23.073Z,7.47
2022-12-20T10:27:52.521Z,7.54
2022-12-20T10:30:24.944Z,7.56
2022-12-20T10:32:54.736Z,7.63
2022-12-20T10:35:26.260Z,7.61
2022-12-20T10:38:08.851Z,7.63
2022-12-20T10:41:18.738Z,7.65
2022-12-20T10:43:28.637Z,7.71
2022-12-20T10:46:00.369Z,7.75
2022-12-20T10:48:31.965Z,7.79
2022-12-20T10:51:02.094Z,7.83
2022-12-20T10:53:31.288Z,7.89
2022-12-20T10:56:17.308Z,7.94
2022-12-20T10:58:53.778Z,7.99
2022-12-20T11:01:31.430Z,8.00
2022-12-20T11:04:01.769Z,8.04
2022-12-20T11:06:42.171Z,8.09
2022-12-20T11:09:24.907Z,8.13
2022-12-20T11:12:01.233Z,8.17
2022-12-20T11:14:38.059Z,8.19
2022-12-20T11:17:21.142Z,8.24
2022-12-20T11:20:01.164Z,8.26
2022-12-20T11:22:35.999Z,8.24
2022-12-20T11:25:18.799Z,8.34
2022-12-20T11:27:57.340Z,8.47
2022-12-20T11:30:27.379Z,8.55
2022-12-20T11:33:29.104Z,8.64
2022-12-20T11:36:02.472Z,8.65
2022-12-20T11:38:41.971Z,8.60
2022-12-20T11:41:16.872Z,8.55
2022-12-20T11:44:24.431Z,8.54
2022-12-20T11:46:57.687Z,8.47
2022-12-20T11:49:38.953Z,8.44
2022-12-20T11:52:16.652Z,8.38
2022-12-20T11:54:47.078Z,8.31
2022-12-20T11:57:19.366Z,8.29
2022-12-20T11:59:48.787Z,8.33
2022-12-20T12:02:22.415Z,8.38
2022-12-20T12:04:56.404Z,8.40
2022-12-20T12:07:29.957Z,8.41
2022-12-20T12:10:00.823Z,8.40
2022-12-20T12:12:32.246Z,8.36
2022-12-20T12:15:08.735Z,8.36
2022-12-20T12:17:42.989Z,8.34
2022-12-20T12:20:22.555Z,8.37
2022-12-20T12:22:56.710Z,8.41
2022-12-20T12:25:25.288Z,8.38
2022-12-20T12:27:53.494Z,8.38
2022-12-20T12:30:22.590Z,8.41
2022-12-20T12:32:54.689Z,8.45
2022-12-20T12:35:45.215Z,8.41
2022-12-20T12:38:46.483Z,8.45
2022-12-20T12:41:44.903Z,8.48
2022-12-20T12:44:35.694Z,8.50
2022-12-20T12:47:06.881Z,8.51
2022-12-20T12:49:35.247Z,8.50
2022-12-20T12:52:07.073Z,8.54
2022-12-20T12:54:40.079Z,8.55
2022-12-20T12:57:08.721Z,8.54
2022-12-20T12:59:48.064Z,8.51
2022-12-20T13:02:36.123Z,8.48
2022-12-20T13:05:31.171Z,8.47
2022-12-20T13:08:00.760Z,8.44
2022-12-20T13:11:01.657Z,8.44
2022-12-20T13:13:30.091Z,8.44
2022-12-20T13:16:55.603Z,8.45
2022-12-20T13:19:19.018Z,8.47
2022-12-20T13:21:48.649Z,8.47
2022-12-20T13:24:53.414Z,8.42
2022-12-20T13:27:30.963Z,8.40
2022-12-20T13:30:03.105Z,8.38
2022-12-20T13:32:55.215Z,8.31
2022-12-20T13:35:33.054Z,8.29
2022-12-20T13:38:04.791Z,8.24
2022-12-20T13:40:37.169Z,8.23
2022-12-20T13:43:09.652Z,8.20
2022-12-20T13:45:39.294Z,8.17
2022-12-20T13:48:11.621Z,8.13
2022-12-20T13:50:41.073Z,8.11
2022-12-20T13:53:17.703Z,8.10
2022-12-20T13:55:47.687Z,8.06
2022-12-20T13:58:19.456Z,8.04
2022-12-20T14:00:48.535Z,7.99
2022-12-20T14:03:23.754Z,7.99
2022-12-20T14:05:56.801Z,7.97
2022-12-20T14:08:27.244Z,7.97
2022-12-20T14:10:55.380Z,7.92
2022-12-20T14:13:26.326Z,7.93
2022-12-20T14:15:56.285Z,7.92
2022-12-20T14:18:26.137Z,7.93
2022-12-20T14:20:57.040Z,7.94
2022-12-20T14:23:27.776Z,7.92
2022-12-20T14:25:57.894Z,7.89
2022-12-20T14:28:30.971Z,7.87
2022-12-20T14:31:01.167Z,7.87
2022-12-20T14:33:35.715Z,7.87
2022-12-20T14:36:12.459Z,7.82
2022-12-20T14:38:41.528Z,7.82
2022-12-20T14:41:35.003Z,7.81
2022-12-20T14:44:15.331Z,7.79
2022-12-20T14:46:49.572Z,7.76
2022-12-20T14:49:26.288Z,7.76
2022-12-20T14:52:06.940Z,7.76
2022-12-20T14:57:25.905Z,7.69
2022-12-20T15:00:25.065Z,7.66
2022-12-20T15:03:00.420Z,7.65
2022-12-20T15:05:48.008Z,7.62
2022-12-20T15:08:19.362Z,7.63
2022-12-20T15:10:54.693Z,7.61
2022-12-20T15:13:25.948Z,7.52
2022-12-20T15:15:55.659Z,7.48
2022-12-20T15:18:23.667Z,7.48
2022-12-20T15:21:01.433Z,7.44
2022-12-20T15:23:29.571Z,7.44
2022-12-20T15:25:57.733Z,7.40
2022-12-20T15:28:26.731Z,7.38
2022-12-20T15:30:56.514Z,7.35
2022-12-20T15:33:26.384Z,7.34
2022-12-20T15:35:54.829Z,7.30
2022-12-20T15:38:40.528Z,7.30
2022-12-20T15:41:15.202Z,7.24
2022-12-20T15:43:43.312Z,7.25
2022-12-20T15:46:13.047Z,7.20
2022-12-20T15:48:41.107Z,7.20
2022-12-20T15:51:16.404Z,7.21
2022-12-20T15:53:44.614Z,7.18
2022-12-20T15:56:18.589Z,7.14
2022-12-20T15:58:47.417Z,7.11
2022-12-20T16:01:21.582Z,7.05
2022-12-20T16:03:49.811Z,7.07
2022-12-20T16:06:17.947Z,7.04
2022-12-20T16:08:46.079Z,7.04
2022-12-20T16:11:21.597Z,7.01
2022-12-20T16:13:49.804Z,6.99
2022-12-20T16:16:21.498Z,6.97
2022-12-20T16:18:50.212Z,6.94
2022-12-20T16:21:19.133Z,6.92
2022-12-20T16:23:48.390Z,6.89
2022-12-20T16:26:17.093Z,6.83
2022-12-20T16:28:45.434Z,6.80
2022-12-20T16:31:22.749Z,6.79
2022-12-20T16:33:50.885Z,6.72
2022-12-20T16:36:19.453Z,6.68
2022-12-20T16:38:47.727Z,6.66
2022-12-20T16:41:17.224Z,6.63
2022-12-20T16:43:45.764Z,6.62
2022-12-20T16:46:15.157Z,6.59
2022-12-20T16:48:45.928Z,6.57
2022-12-20T16:51:23.672Z,6.56
2022-12-20T16:54:18.052Z,6.56
2022-12-20T16:56:40.306Z,6.52
2022-12-20T16:59:19.367Z,6.53
2022-12-20T17:01:50.220Z,6.49
2022-12-20T17:04:20.361Z,6.49
2022-12-20T17:06:48.514Z,6.49
2022-12-20T17:09:16.903Z,6.50
2022-12-20T17:11:45.130Z,6.50
2022-12-20T17:14:13.683Z,6.56
2022-12-20T17:16:41.869Z,6.61
2022-12-20T17:19:10.878Z,6.65
2022-12-20T17:24:29.253Z,6.72
2022-12-20T17:26:57.298Z,6.77
2022-12-20T17:29:28.455Z,6.80
2022-12-20T17:31:56.536Z,6.84
2022-12-20T17:34:26.484Z,6.84
2022-12-20T17:36:57.451Z,6.86
2022-12-20T17:39:26.468Z,6.87
2022-12-20T17:41:55.961Z,6.92
2022-12-20T17:44:26.126Z,6.94
2022-12-20T17:46:54.837Z,6.94
2022-12-20T17:49:23.546Z,6.99
2022-12-20T17:51:52.703Z,7.00
2022-12-20T17:54:32.073Z,7.01
2022-12-20T17:57:03.153Z,7.03
2022-12-20T17:59:31.148Z,7.04
2022-12-20T18:01:59.499Z,7.04
2022-12-20T18:04:27.984Z,7.07
2022-12-20T18:06:57.269Z,7.08
2022-12-20T18:09:26.786Z,7.10
2022-12-20T18:11:55.090Z,7.11
2022-12-20T18:14:23.171Z,7.07
2022-12-20T18:16:51.200Z,7.04
2022-12-20T18:19:20.463Z,7.01
2022-12-20T18:21:48.689Z,6.99
2022-12-20T18:24:17.325Z,6.97
2022-12-20T18:26:47.339Z,6.94
2022-12-20T18:29:15.510Z,6.92
2022-12-20T18:31:43.604Z,6.90
2022-12-20T18:34:13.084Z,6.90
2022-12-20T18:36:41.193Z,6.92
2022-12-20T18:39:09.635Z,6.89
2022-12-20T18:41:37.854Z,6.89
2022-12-20T18:44:07.935Z,6.87
2022-12-20T18:46:35.966Z,6.92
2022-12-20T18:49:04.618Z,6.89
2022-12-20T18:51:36.669Z,6.92
2022-12-20T18:54:05.858Z,6.90
2022-12-20T18:56:35.978Z,6.93
2022-12-20T18:59:10.709Z,6.93
2022-12-20T19:01:41.992Z,6.94
2022-12-20T19:04:10.922Z,6.94
2022-12-20T19:06:39.393Z,6.93
2022-12-20T19:09:09.951Z,6.92
2022-12-20T19:11:39.047Z,6.90
2022-12-20T19:14:07.655Z,6.89
2022-12-20T19:16:36.236Z,6.89
2022-12-20T19:19:05.833Z,6.86
2022-12-20T19:21:35.876Z,6.84
2022-12-20T19:24:07.043Z,6.79
2022-12-20T19:26:36.492Z,6.80
2022-12-20T19:29:05.332Z,6.77
2022-12-20T19:31:36.377Z,6.76
2022-12-20T19:34:08.663Z,6.72
2022-12-20T19:36:38.560Z,6.69
2022-12-20T19:39:08.584Z,6.66
2022-12-20T19:41:36.774Z,6.61
2022-12-20T19:44:06.214Z,6.57
2022-12-20T19:46:34.603Z,6.55
2022-12-20T19:49:03.402Z,6.53
2022-12-20T19:51:33.236Z,6.49
2022-12-20T19:54:01.753Z,6.48
2022-12-20T19:56:35.148Z,6.41
2022-12-20T19:59:03.632Z,6.44
2022-12-20T20:01:31.875Z,6.42
2022-12-20T20:04:01.794Z,6.42
2022-12-20T20:06:30.150Z,6.46
2022-12-20T20:09:00.494Z,6.44
2022-12-20T20:11:29.026Z,6.41
2022-12-20T20:13:57.024Z,6.44
2022-12-20T20:16:25.279Z,6.39
2022-12-20T20:18:53.600Z,6.41
2022-12-20T20:21:23.870Z,6.44
2022-12-20T20:23:53.616Z,6.44
2022-12-20T20:26:25.377Z,6.48
2022-12-20T20:28:54.022Z,6.42
2022-12-20T20:31:23.000Z,6.42
2022-12-20T20:33:52.648Z,6.36
2022-12-20T20:36:22.167Z,6.38
2022-12-20T20:38:51.674Z,6.35
2022-12-20T20:41:20.256Z,6.35
2022-12-20T20:43:49.865Z,6.36
2022-12-20T20:46:18.833Z,6.36
2022-12-20T20:48:47.233Z,6.35
2022-12-20T20:51:15.533Z,6.35
2022-12-20T20:53:43.459Z,6.36
2022-12-20T20:56:11.859Z,6.34
2022-12-20T20:58:39.922Z,6.29
2022-12-20T21:01:09.797Z,6.31
2022-12-20T21:03:38.755Z,6.26
2022-12-20T21:06:37.243Z,6.29
2022-12-20T21:08:56.093Z,6.25
2022-12-20T21:11:24.550Z,6.22
2022-12-20T21:13:54.287Z,6.22
2022-12-20T21:16:24.465Z,6.21
2022-12-20T21:18:52.960Z,6.18
2022-12-20T21:21:21.382Z,6.20
2022-12-20T21:23:49.609Z,6.18
2022-12-20T21:26:18.925Z,6.14
2022-12-20T21:28:47.261Z,6.13
2022-12-20T21:31:17.569Z,6.13
2022-12-20T21:33:47.134Z,6.10
2022-12-20T21:36:16.617Z,6.08
2022-12-20T21:38:48.785Z,6.08
2022-12-20T21:41:17.514Z,6.07
2022-12-20T21:43:45.861Z,6.04
2022-12-20T21:46:13.855Z,6.04
2022-12-20T21:48:43.301Z,6.04
2022-12-20T21:51:14.875Z,6.04
2022-12-20T21:53:44.869Z,6.07
2022-12-20T21:56:13.424Z,6.05
2022-12-20T21:58:41.442Z,6.03
2022-12-20T22:01:09.811Z,6.01
2022-12-20T22:03:38.669Z,5.98
2022-12-20T22:06:07.091Z,6.00
2022-12-20T22:08:37.721Z,6.01
2022-12-20T22:11:07.247Z,6.00
2022-12-20T22:13:42.450Z,6.01
2022-12-20T22:16:11.948Z,6.00
2022-12-20T22:18:40.980Z,6.03
2022-12-20T22:21:10.780Z,6.04
2022-12-20T22:23:40.714Z,6.03
2022-12-20T22:26:10.448Z,6.01
2022-12-20T22:28:39.204Z,6.00
2022-12-20T22:31:09.321Z,6.00
2022-12-20T22:33:38.383Z,6.00
2022-12-20T22:36:07.551Z,5.95
2022-12-20T22:38:36.026Z,5.95
2022-12-20T22:41:10.132Z,5.94
2022-12-20T22:43:38.708Z,5.89
2022-12-20T22:46:07.511Z,5.86
2022-12-20T22:48:35.719Z,5.84
2022-12-20T22:51:06.439Z,5.84
2022-12-20T22:53:35.225Z,5.83
2022-12-20T22:56:04.214Z,5.77
2022-12-20T22:58:36.971Z,5.77
2022-12-20T23:01:07.341Z,5.73
2022-12-20T23:03:35.995Z,5.74
2022-12-20T23:06:05.823Z,5.76
2022-12-20T23:08:35.972Z,5.73
2022-12-20T23:11:22.707Z,5.73
2022-12-20T23:14:09.850Z,5.69
2022-12-20T23:16:38.619Z,5.67
2022-12-20T23:19:06.728Z,5.65
2022-12-20T23:21:52.532Z,5.66
2022-12-20T23:24:20.744Z,5.65
2022-12-20T23:26:48.800Z,5.60
2022-12-20T23:29:18.136Z,5.56
2022-12-20T23:31:46.294Z,5.53
2022-12-20T23:34:14.525Z,5.50
2022-12-20T23:36:42.656Z,5.46
2022-12-20T23:39:10.832Z,5.46
2022-12-20T23:41:38.898Z,5.43
2022-12-20T23:44:07.473Z,5.43
2022-12-20T23:46:37.021Z,5.39
2022-12-20T23:49:05.059Z,5.38
2022-12-20T23:51:34.521Z,5.35
2022-12-20T23:54:02.650Z,5.35
2022-12-20T23:56:30.701Z,5.34
2022-12-20T23:58:58.709Z,5.32
